Grimbergen, Belgium
Current Conditions -  °F | °C
As of 1:50 AM on Saturday 25 Oct 2014 (Local Time) from EBBR Reporting Station
Light Rain Light Rain  
Wind Chill: 52°   Ceiling: 1800
Heat Index: 52°   Visibility: 2.5mi
Dew Point: 50°   Wind: 13mph
Humidity: 94%   Direction: 220°SW
Pressure: 30.03"   Gusts: NA
Location:  50.93°N, 4.37°E
Report Text: EBBR 242350Z 22011KT 4000 -RA BR FEW003 SCT008 BKN018 11/10 Q1017 TEMPO 4000 RA
Loading
Personal Weather Stations






























Interactive Weather Map
Tropical Storm Tracking
New forecast layout! Learn more

10-Day Weather Forecast

Advertisements
Track Severe Weather on mobile